Flight Track Log - Related Links

Times and Time Zones

All times are in EDT time to prevent confusion due to time zone crossing. See the DAL3688 flight status page for this flight to view local times or setup timezone preferences in your user account.

Time Position Orientation Groundspeed Altitude Reporting Facility
EDT Latitude Longitude Course Direction KTS MPH feet Rate Location/Type
Mon 01:04:05 PM 40.1167 -76.9056 246° West 278 320 7,600  Level New York Center
Mon 01:05:03 PM 40.1031 -77.0047 260° West 293 337 8,100 1,850 Climbing New York Center
Mon 01:06:00 PM 40.1717 -77.3814 241° Southwest  Level FlightAware Approximate
Mon 01:06:05 PM 40.0900 -77.0931 259° West 288 331 11,300  Level New York Center
Mon 01:07:00 PM 40.1279 -77.4999 247° West  Level FlightAware Approximate
Mon 01:08:00 PM 40.0877 -77.6207 247° West  Level FlightAware Approximate
Mon 01:08:01 PM 40.0656 -77.2922 261° West 283 326 15,900  Level Cleveland Center
Mon 01:09:00 PM 40.0473 -77.7414 246° West  Level FlightAware Approximate
Mon 01:09:01 PM 40.0497 -77.4017 259° West 294 338 18,000  Level Cleveland Center
Mon 01:10:01 PM 40.0342 -77.5108 259° West 299 344 19,200 1,300 Climbing Cleveland Center
Mon 01:11:01 PM 40.0203 -77.6253 261° West 315 362 20,600 1,400 Climbing Cleveland Center
Mon 01:12:01 PM 40.0006 -77.7456 258° West 328 377 22,000 1,400 Climbing Cleveland Center
Mon 01:13:01 PM 39.9869 -77.8708 262° West 341 392 23,400 1,400 Climbing Cleveland Center
Mon 01:14:01 PM 39.9753 -77.9958 263° West 346 398 24,800 1,300 Climbing Cleveland Center
Mon 01:15:01 PM 39.9781 -78.1231 272° West 352 405 26,000 600 Climbing Cleveland Center
Mon 01:16:01 PM 39.9792 -78.2747 271° West 365 420 26,000  Level Cleveland Center
Mon 01:17:01 PM 39.9819 -78.4128 272° West 375 432 26,000  Level Cleveland Center
Mon 01:18:01 PM 39.9844 -78.5508 271° West 382 440 26,000  Level Cleveland Center
Mon 01:19:01 PM 39.9889 -78.6972 272° West 389 448 26,000  Level Cleveland Center
Mon 01:20:01 PM 39.9933 -78.8381 272° West 389 448 26,000  Level Cleveland Center
Mon 01:21:01 PM 39.9994 -78.9761 273° West 389 448 26,000  Level Cleveland Center
Mon 01:22:01 PM 39.9994 -79.1169 270° West 383 441 26,000  Level Cleveland Center
Mon 01:23:01 PM 40.0031 -79.2578 272° West 383 441 26,000  Level Cleveland Center
Mon 01:24:01 PM 40.0069 -79.4014 272° West 383 441 26,000  Level Cleveland Center
Mon 01:25:01 PM 40.0603 -79.5253 299° West 373 429 26,000  Level Cleveland Center
Mon 01:26:01 PM 40.1217 -79.6436 304° West 379 436 26,000  Level Cleveland Center
Mon 01:27:01 PM 40.1853 -79.7650 304° West 391 450 26,000  Level Cleveland Center
Mon 01:28:01 PM 40.2464 -79.8842 304° West 403 464 26,000  Level Cleveland Center
Mon 01:29:01 PM 40.3075 -80.0033 304° West 403 464 26,000  Level Cleveland Center
Mon 01:30:01 PM 40.3644 -80.1281 301° West 403 464 26,000  Level Cleveland Center
Mon 01:31:01 PM 40.4272 -80.2475 305° West 408 470 26,000  Level Cleveland Center
Mon 01:32:01 PM 40.4839 -80.3564 304° West 408 470 26,000  Level Cleveland Center
Mon 01:33:01 PM 40.5444 -80.4764 304° West 408 470 26,000  Level Cleveland Center
Mon 01:34:01 PM 40.6092 -80.6158 301° West 408 470 26,000  Level Cleveland Center
Mon 01:35:01 PM 40.6675 -80.7228 306° West 413 475 26,000  Level Cleveland Center
Mon 01:36:01 PM 40.7278 -80.8461 303° West 406 467 26,000  Level Cleveland Center
Mon 01:37:01 PM 40.7878 -80.9725 302° West 406 467 26,000 -50 Level Cleveland Center
Mon 01:38:01 PM 40.8478 -81.0992 302° West 412 474 25,900 -600 Descending Cleveland Center
Mon 01:39:01 PM 40.9097 -81.2233 303° West 412 474 24,800 -950 Descending Cleveland Center
Mon 01:40:01 PM 40.9694 -81.3475 303° West 402 463 24,000 -400 Descending Cleveland Center
Mon 01:41:01 PM 41.0267 -81.4694 302° West 402 463 24,000  Level Cleveland Center
Mon 01:42:01 PM 41.0925 -81.6025 303° West 402 463 24,000  Level Cleveland Center
Mon 01:43:01 PM 41.1478 -81.7136 303° West 397 457 24,000  Level Cleveland Center
Mon 01:44:01 PM 41.2067 -81.8361 303° West 397 457 24,000 -350 Level Cleveland Center
Mon 01:45:01 PM 41.2658 -81.9589 303° West 397 457 23,300 -1,100 Descending Cleveland Center
Mon 01:46:01 PM 41.3206 -82.0817 301° West 392 451 21,800 -1,500 Descending Cleveland Center
Mon 01:47:01 PM 41.3794 -82.1992 304° West 386 444 20,300 -1,550 Descending Cleveland Center
Mon 01:48:01 PM 41.4444 -82.3089 308° West 386 444 18,700 -1,400 Descending Cleveland Center
Mon 01:49:01 PM 41.5097 -82.4161 309° West 378 435 17,500 -1,500 Descending Cleveland Center
Mon 01:51:01 PM 41.6333 -82.6222 309° West 356 410 14,200 -1,640 Descending Cleveland Center
Mon 01:51:20 PM 41.6575 -82.6619 309° West 350 403 13,700 -1,700 Descending Cleveland Center
Mon 01:52:01 PM 41.6978 -82.7356 306° West 351 404 12,500 -1,672 Descending Cleveland Center
Mon 01:52:21 PM 41.7203 -82.7725 309° West 351 404 12,000 -500 Descending Cleveland Center
Mon 01:53:01 PM 41.7628 -82.8269 316° Northwest 351 404 12,000  Level Cleveland Center
Mon 01:53:22 PM 41.7914 -82.8586 320° Northwest 345 397 12,000  Level Cleveland Center
Mon 01:54:01 PM 41.8361 -82.9131 318° Northwest 346 398 12,000  Level Cleveland Center
Mon 01:54:23 PM 41.8647 -82.9475 318° Northwest 347 399 12,000  Level Cleveland Center
Mon 01:55:01 PM 41.9075 -82.9994 318° Northwest 346 398 12,000  Level Cleveland Center
Mon 01:55:18 PM 41.9317 -83.0283 318° Northwest 351 404 12,000  Level Cleveland Center
Mon 01:56:01 PM 41.9806 -83.0861 319° Northwest 346 398 12,000 -97 Level Cleveland Center
Mon 01:56:20 PM 42.0028 -83.1147 316° Northwest 348 400 11,900 -900 Descending Cleveland Center
Mon 01:57:01 PM 42.0475 -83.1669 319° Northwest 338 389 11,100 -900 Descending Cleveland Center
Mon 01:57:20 PM 42.0658 -83.1900 317° Northwest 287 330 11,000 -100 Descending Cleveland Center
Mon 01:58:01 PM 42.1153 -83.2172 338° Northwest 299 344 11,000 -290 Level Cleveland Center
Mon 01:58:22 PM 42.1442 -83.2297 342° North 287 330 10,700 -1,300 Descending Cleveland Center
Mon 01:59:01 PM 42.1922 -83.2261 North 282 325 9,700 -1,343 Descending Cleveland Center
Mon 01:59:29 PM 42.2239 -83.2078 23° Northeast 268 308 9,200 -1,416 Descending Cleveland Center
Mon 02:00:30 PM 42.2897 -83.1542 31° Northeast 256 295 7,600 -1,073 Descending Cleveland Center
Mon 02:01:32 PM 42.3511 -83.1061 30° Northeast 253 291 7,000 -974 Descending Cleveland Center
Mon 02:02:27 PM 42.4047 -83.1364 337° Northwest 247 284 5,700 -1,131 Descending Cleveland Center
Mon 02:03:34 PM 42.3864 -83.2144 252° West 202 232 4,700 -1,077 Descending Cleveland Center
Mon 02:04:24 PM 42.3461 -83.2408 206° Southwest 191 220 3,600 -1,320 Descending Cleveland Center

Login

Don't have an account? Register now (free) for customized features, flight alerts, and more!